Terminal Aerodrome Forecast
Issued by NWS

Home | Current Version | Previous Version | Graphics & Text | Print | Product List | Glossary On
Versions: 1 2 3 4 5 6 7 8 9 10 11 12 13 14 15 16 17 18 19
000
FTUS43 KGRB 201700
TAFCWA
TAF
KCWA 201735Z 2018/2118 29014G21KT P6SM BKN025
     FM202300 24003KT P6SM SCT030 BKN250
     FM210300 29003KT 5SM -SHRA BR SCT025 OVC050
      TEMPO 2105/2107 3SM -TSRA BR OVC025CB
     FM211200 35007KT P6SM VCSH BKN020
     FM211600 33008KT P6SM BKN030=

USA.gov is the U.S. government's official web portal to all federal, state and local government web resources and services.